createdAt,value
2024-03-05T00:00:07.887Z,24.4100
2024-03-05T00:00:18.973Z,24.4100
2024-03-05T00:00:30.037Z,24.4200
2024-03-05T00:00:41.282Z,24.4200
2024-03-05T00:00:52.394Z,24.4200
2024-03-05T00:01:03.647Z,24.4100
2024-03-05T00:01:14.977Z,24.4100
2024-03-05T00:01:26.161Z,24.4100
2024-03-05T00:01:37.281Z,24.4100
2024-03-05T00:01:48.342Z,24.4100
2024-03-05T00:01:59.461Z,24.4100
2024-03-05T00:02:10.545Z,24.4100
2024-03-05T00:02:21.558Z,24.4100
2024-03-05T00:02:32.607Z,24.4200
2024-03-05T00:02:43.657Z,24.4100
2024-03-05T00:02:54.704Z,24.4200
2024-03-05T00:03:05.752Z,24.4200
2024-03-05T00:03:16.807Z,24.4200
2024-03-05T00:03:28.050Z,24.4200
2024-03-05T00:03:39.049Z,24.4200
2024-03-05T00:03:50.082Z,24.4100
2024-03-05T00:04:01.144Z,24.4100
2024-03-05T00:04:12.234Z,24.4100
2024-03-05T00:04:23.358Z,24.4000
2024-03-05T00:04:34.417Z,24.4100
2024-03-05T00:04:45.457Z,24.4000
2024-03-05T00:04:56.563Z,24.4000
2024-03-05T00:05:07.659Z,24.4000
2024-03-05T00:05:18.708Z,24.4000
2024-03-05T00:05:29.772Z,24.4000
2024-03-05T00:05:40.801Z,24.4000
2024-03-05T00:05:51.856Z,24.4100
2024-03-05T00:06:02.963Z,24.4100
2024-03-05T00:06:14.012Z,24.4100
2024-03-05T00:06:25.039Z,24.4100
2024-03-05T00:06:36.083Z,24.4200
2024-03-05T00:06:47.154Z,24.4200
2024-03-05T00:06:58.263Z,24.4200
2024-03-05T00:07:09.313Z,24.4200
2024-03-05T00:07:20.417Z,24.4200
2024-03-05T00:07:31.479Z,24.4300
2024-03-05T00:07:42.596Z,24.4300
2024-03-05T00:07:53.765Z,24.4300
2024-03-05T00:08:04.932Z,24.4300
2024-03-05T00:08:16.060Z,24.4300
2024-03-05T00:08:27.103Z,24.4300
2024-03-05T00:08:38.172Z,24.4400
2024-03-05T00:08:49.166Z,24.4300
2024-03-05T00:09:00.229Z,24.4300
2024-03-05T00:09:11.424Z,24.4200
2024-03-05T00:09:22.490Z,24.4300
2024-03-05T00:09:33.574Z,24.4300
2024-03-05T00:09:44.609Z,24.4300
2024-03-05T00:09:55.654Z,24.4300
2024-03-05T00:10:06.756Z,24.4300
2024-03-05T00:10:17.856Z,24.4300
2024-03-05T00:10:29.022Z,24.4300
2024-03-05T00:10:40.199Z,24.4300
2024-03-05T00:10:51.390Z,24.4300
2024-03-05T00:11:02.589Z,24.4300
2024-03-05T00:11:13.810Z,24.4300
2024-03-05T00:11:25.265Z,24.4200
2024-03-05T00:11:36.360Z,24.4200
2024-03-05T00:11:47.429Z,24.4200
2024-03-05T00:11:58.520Z,24.4200
2024-03-05T00:12:09.606Z,24.4200
2024-03-05T00:12:20.664Z,24.4200
2024-03-05T00:12:31.722Z,24.4300
2024-03-05T00:12:42.765Z,24.4300
2024-03-05T00:12:53.823Z,24.4200
2024-03-05T00:13:04.850Z,24.4200
2024-03-05T00:13:15.993Z,24.4100
2024-03-05T00:13:27.070Z,24.4100
2024-03-05T00:13:38.176Z,24.4100
2024-03-05T00:13:49.272Z,24.4200
2024-03-05T00:14:00.472Z,24.4100
2024-03-05T00:14:11.525Z,24.4100
2024-03-05T00:14:22.563Z,24.4100
2024-03-05T00:14:33.598Z,24.4200
2024-03-05T00:14:44.703Z,24.4200
2024-03-05T00:14:55.759Z,24.4200
2024-03-05T00:15:06.837Z,24.4300
2024-03-05T00:15:17.901Z,24.4300
2024-03-05T00:15:28.987Z,24.4300
2024-03-05T00:15:40.027Z,24.4300
2024-03-05T00:15:51.091Z,24.4400
2024-03-05T00:16:02.147Z,24.4300
2024-03-05T00:16:13.243Z,24.4300
2024-03-05T00:16:24.395Z,24.4300
2024-03-05T00:16:35.543Z,24.4300
2024-03-05T00:16:46.675Z,24.4300
2024-03-05T00:16:57.834Z,24.4300
2024-03-05T00:17:08.900Z,24.4400
2024-03-05T00:17:19.955Z,24.4400
2024-03-05T00:17:31.046Z,24.4400
2024-03-05T00:17:42.133Z,24.4400
2024-03-05T00:17:53.198Z,24.4400
2024-03-05T00:18:04.277Z,24.4300
2024-03-05T00:18:15.318Z,24.4300
2024-03-05T00:18:26.383Z,24.4300
2024-03-05T00:18:37.468Z,24.4300
2024-03-05T00:18:48.503Z,24.4300
2024-03-05T00:18:59.570Z,24.4300
2024-03-05T00:19:10.716Z,24.4200
2024-03-05T00:19:21.843Z,24.4200
2024-03-05T00:19:32.915Z,24.4200
2024-03-05T00:19:43.968Z,24.4200
2024-03-05T00:19:55.058Z,24.4200
2024-03-05T00:20:06.189Z,24.4300
2024-03-05T00:20:17.306Z,24.4300
2024-03-05T00:20:28.329Z,24.4300
2024-03-05T00:20:39.413Z,24.4400
2024-03-05T00:20:50.467Z,24.4400
2024-03-05T00:21:01.487Z,24.4400
2024-03-05T00:21:12.542Z,24.4300
2024-03-05T00:21:23.575Z,24.4300
2024-03-05T00:21:34.695Z,24.4200
2024-03-05T00:21:45.753Z,24.4200
2024-03-05T00:21:56.805Z,24.4200
2024-03-05T00:22:07.867Z,24.4200
2024-03-05T00:22:18.962Z,24.4200
2024-03-05T00:22:30.096Z,24.4200
2024-03-05T00:22:41.207Z,24.4200
2024-03-05T00:22:52.361Z,24.4300
2024-03-05T00:23:03.508Z,24.4300
2024-03-05T00:23:14.542Z,24.4300
2024-03-05T00:23:25.595Z,24.4400
2024-03-05T00:23:36.634Z,24.4300
2024-03-05T00:23:47.727Z,24.4300
2024-03-05T00:23:58.736Z,24.4300
2024-03-05T00:24:09.821Z,24.4300
2024-03-05T00:24:20.855Z,24.4400
2024-03-05T00:24:31.933Z,24.4400
2024-03-05T00:24:42.994Z,24.4500
2024-03-05T00:24:54.004Z,24.4500
2024-03-05T00:25:05.118Z,24.4500
2024-03-05T00:25:16.309Z,24.4500
2024-03-05T00:25:27.759Z,24.4500
2024-03-05T00:25:38.908Z,24.4500
2024-03-05T00:25:50.053Z,24.4400
2024-03-05T00:26:01.138Z,24.4400
2024-03-05T00:26:12.208Z,24.4300
2024-03-05T00:26:23.272Z,24.4300
2024-03-05T00:26:34.342Z,24.4300
2024-03-05T00:26:45.384Z,24.4200
2024-03-05T00:26:56.487Z,24.4200
2024-03-05T00:27:07.605Z,24.4200
2024-03-05T00:27:18.623Z,24.4200
2024-03-05T00:27:29.691Z,24.4200
2024-03-05T00:27:40.745Z,24.4200
2024-03-05T00:27:51.811Z,24.4200
2024-03-05T00:28:02.888Z,24.4200
2024-03-05T00:28:13.944Z,24.4200
2024-03-05T00:28:24.992Z,24.4200
2024-03-05T00:28:36.077Z,24.4200
2024-03-05T00:28:47.244Z,24.4200
2024-03-05T00:28:58.379Z,24.4200
2024-03-05T00:29:09.445Z,24.4200
2024-03-05T00:29:20.466Z,24.4200
2024-03-05T00:29:31.527Z,24.4200
2024-03-05T00:29:42.581Z,24.4200
2024-03-05T00:29:53.603Z,24.4200
2024-03-05T00:30:04.690Z,24.4200
2024-03-05T00:30:15.734Z,24.4100
2024-03-05T00:30:26.796Z,24.4100
2024-03-05T00:30:37.844Z,24.4100
2024-03-05T00:30:48.905Z,24.4100
2024-03-05T00:30:59.929Z,24.4100
2024-03-05T00:31:11.139Z,24.4000
2024-03-05T00:31:22.292Z,24.4000
2024-03-05T00:31:33.338Z,24.4000
2024-03-05T00:31:44.484Z,24.4000
2024-03-05T00:31:55.542Z,24.4000
2024-03-05T00:32:06.618Z,24.4000
2024-03-05T00:32:17.671Z,24.4000
2024-03-05T00:32:28.732Z,24.4000
2024-03-05T00:32:39.822Z,24.4000
2024-03-05T00:32:50.925Z,24.4000
2024-03-05T00:33:02.059Z,24.4000
2024-03-05T00:33:13.266Z,24.4000
2024-03-05T00:33:24.301Z,24.4000
2024-03-05T00:33:35.353Z,24.4000
2024-03-05T00:33:46.417Z,24.4000
2024-03-05T00:33:57.475Z,24.3900
2024-03-05T00:34:08.531Z,24.3900
2024-03-05T00:34:19.612Z,24.3900
2024-03-05T00:34:30.685Z,24.3900
2024-03-05T00:34:41.747Z,24.3900
2024-03-05T00:34:52.807Z,24.4000
2024-03-05T00:35:03.896Z,24.4000
2024-03-05T00:35:14.947Z,24.4000
2024-03-05T00:35:26.054Z,24.4100
2024-03-05T00:35:37.103Z,24.4000
2024-03-05T00:35:48.132Z,24.4000
2024-03-05T00:35:59.222Z,24.4000
2024-03-05T00:36:10.257Z,24.4000
2024-03-05T00:36:21.292Z,24.4000
2024-03-05T00:36:32.337Z,24.4000
2024-03-05T00:36:43.401Z,24.4000
2024-03-05T00:36:54.508Z,24.4000
2024-03-05T00:37:05.529Z,24.4000
2024-03-05T00:37:16.662Z,24.4000
2024-03-05T00:37:27.777Z,24.4000
2024-03-05T00:37:39.081Z,24.4100
2024-03-05T00:37:50.454Z,24.4100
2024-03-05T00:38:01.612Z,24.4100
2024-03-05T00:38:18.591Z,24.4200
2024-03-05T00:38:33.689Z,24.4200
2024-03-05T00:38:45.358Z,24.3900
2024-03-05T00:38:56.419Z,24.3700
2024-03-05T00:39:07.464Z,24.3700
2024-03-05T00:39:18.732Z,24.3800
2024-03-05T00:39:29.773Z,24.3800
2024-03-05T00:39:40.845Z,24.3800
2024-03-05T00:39:51.919Z,24.3900
2024-03-05T00:40:02.989Z,24.3900
2024-03-05T00:40:14.070Z,24.3900
2024-03-05T00:40:25.138Z,24.3900
2024-03-05T00:40:36.277Z,24.4000
2024-03-05T00:40:47.410Z,24.4000
2024-03-05T00:40:58.459Z,24.4000
2024-03-05T00:41:09.483Z,24.4100
2024-03-05T00:41:20.593Z,24.4100
2024-03-05T00:41:31.630Z,24.4100
2024-03-05T00:41:42.709Z,24.4000
2024-03-05T00:41:53.737Z,24.4000
2024-03-05T00:42:04.833Z,24.4100
2024-03-05T00:42:15.878Z,24.4100
2024-03-05T00:42:26.976Z,24.4100
2024-03-05T00:42:38.056Z,24.4100
2024-03-05T00:42:49.082Z,24.4100
2024-03-05T00:43:00.182Z,24.4100
2024-03-05T00:43:11.291Z,24.4100
2024-03-05T00:43:22.415Z,24.4100
2024-03-05T00:43:33.462Z,24.4100
2024-03-05T00:43:44.570Z,24.4100
2024-03-05T00:43:55.630Z,24.4100
2024-03-05T00:44:06.702Z,24.4100
2024-03-05T00:44:17.778Z,24.4100
2024-03-05T00:44:28.858Z,24.4100
2024-03-05T00:44:39.937Z,24.4100
2024-03-05T00:44:50.987Z,24.4100
2024-03-05T00:45:02.084Z,24.4100
2024-03-05T00:45:13.129Z,24.4100
2024-03-05T00:45:24.206Z,24.4100
2024-03-05T00:45:35.251Z,24.4100
2024-03-05T00:45:46.287Z,24.4100
2024-03-05T00:45:57.328Z,24.4100
2024-03-05T00:46:08.390Z,24.4100
2024-03-05T00:46:19.483Z,24.4100
2024-03-05T00:46:30.560Z,24.4200
2024-03-05T00:46:41.641Z,24.4200
2024-03-05T00:46:52.776Z,24.4200
2024-03-05T00:47:03.898Z,24.4200
2024-03-05T00:47:14.954Z,24.4200
2024-03-05T00:47:26.069Z,24.4100
2024-03-05T00:47:37.626Z,24.4200
2024-03-05T00:47:48.836Z,24.4200
2024-03-05T00:47:59.936Z,24.4200
2024-03-05T00:48:11.140Z,24.4200
2024-03-05T00:48:22.218Z,24.4100
2024-03-05T00:48:33.273Z,24.4200
2024-03-05T00:48:44.330Z,24.4200
2024-03-05T00:48:55.379Z,24.4300
2024-03-05T00:49:06.423Z,24.4200
2024-03-05T00:49:17.497Z,24.4200
2024-03-05T00:49:28.549Z,24.4200
2024-03-05T00:49:39.641Z,24.4200
2024-03-05T00:49:50.767Z,24.4200
2024-03-05T00:50:01.892Z,24.4100
2024-03-05T00:50:12.943Z,24.4100
2024-03-05T00:50:24.000Z,24.4100
2024-03-05T00:50:35.063Z,24.4100
2024-03-05T00:50:46.175Z,24.4100
2024-03-05T00:50:57.184Z,24.4200
2024-03-05T00:51:08.207Z,24.4200
2024-03-05T00:51:19.256Z,24.4200
2024-03-05T00:51:30.342Z,24.4200
2024-03-05T00:51:41.412Z,24.4300
2024-03-05T00:51:52.458Z,24.4400
2024-03-05T00:52:03.561Z,24.4400
2024-03-05T00:52:14.717Z,24.4400
2024-03-05T00:52:25.845Z,24.4300
2024-03-05T00:52:36.934Z,24.4300
2024-03-05T00:52:48.042Z,24.4200
2024-03-05T00:52:59.136Z,24.4200
2024-03-05T00:53:10.163Z,24.4200
2024-03-05T00:53:21.221Z,24.4200
2024-03-05T00:53:32.294Z,24.4200
2024-03-05T00:53:43.360Z,24.4200
2024-03-05T00:53:54.445Z,24.4100
2024-03-05T00:54:05.524Z,24.4100
2024-03-05T00:54:16.545Z,24.4100
2024-03-05T00:54:27.598Z,24.4000
2024-03-05T00:54:38.664Z,24.4000
2024-03-05T00:54:49.723Z,24.3900
2024-03-05T00:55:00.910Z,24.3900
2024-03-05T00:55:12.425Z,24.4000
2024-03-05T00:55:23.548Z,24.3900
2024-03-05T00:55:34.740Z,24.4000
2024-03-05T00:55:45.848Z,24.4000
2024-03-05T00:55:57.037Z,24.4000
2024-03-05T00:56:08.165Z,24.4000
2024-03-05T00:56:19.211Z,24.3900
2024-03-05T00:56:30.287Z,24.4000
2024-03-05T00:56:41.325Z,24.4000
2024-03-05T00:56:52.376Z,24.3900
2024-03-05T00:57:03.426Z,24.3900
2024-03-05T00:57:14.478Z,24.3900
2024-03-05T00:57:25.585Z,24.3900
2024-03-05T00:57:36.649Z,24.3900
2024-03-05T00:57:47.717Z,24.3900
2024-03-05T00:57:58.911Z,24.3900
2024-03-05T00:58:09.946Z,24.3900
2024-03-05T00:58:21.037Z,24.3900
2024-03-05T00:58:32.097Z,24.4000
2024-03-05T00:58:43.174Z,24.4000
2024-03-05T00:58:54.322Z,24.4000
2024-03-05T00:59:05.463Z,24.4100
2024-03-05T00:59:16.549Z,24.4200
2024-03-05T00:59:27.633Z,24.4200
2024-03-05T00:59:38.693Z,24.4200
2024-03-05T00:59:50.091Z,24.4200
2024-03-05T01:00:01.291Z,24.4200
2024-03-05T01:00:12.330Z,24.4100
2024-03-05T01:00:23.357Z,24.4100
2024-03-05T01:00:34.433Z,24.4100
2024-03-05T01:00:45.477Z,24.4100
2024-03-05T01:00:56.528Z,24.4100
2024-03-05T01:01:07.618Z,24.4100
2024-03-05T01:01:18.723Z,24.4000
2024-03-05T01:01:29.930Z,24.4000
2024-03-05T01:01:41.069Z,24.3900
2024-03-05T01:01:52.250Z,24.3900
2024-03-05T01:02:03.490Z,24.3900
2024-03-05T01:02:14.819Z,24.3900
2024-03-05T01:02:25.946Z,24.4000
2024-03-05T01:02:37.186Z,24.4000
2024-03-05T01:02:48.229Z,24.4000
2024-03-05T01:02:59.293Z,24.3900
2024-03-05T01:03:10.313Z,24.3900
2024-03-05T01:03:21.348Z,24.3900
2024-03-05T01:03:32.399Z,24.3900
2024-03-05T01:03:43.455Z,24.3900
2024-03-05T01:03:54.515Z,24.3900
2024-03-05T01:04:05.584Z,24.3900
2024-03-05T01:04:16.686Z,24.3900
2024-03-05T01:04:27.745Z,24.3900
2024-03-05T01:04:38.808Z,24.4000
2024-03-05T01:04:49.968Z,24.4000
2024-03-05T01:05:01.187Z,24.4000
2024-03-05T01:05:12.252Z,24.4000
2024-03-05T01:05:23.321Z,24.4000
2024-03-05T01:05:34.386Z,24.4000
2024-03-05T01:05:45.435Z,24.4000
2024-03-05T01:05:56.488Z,24.4000
2024-03-05T01:06:07.535Z,24.4100
2024-03-05T01:06:18.550Z,24.4100
2024-03-05T01:06:29.609Z,24.4100
2024-03-05T01:06:40.662Z,24.4200
2024-03-05T01:06:51.709Z,24.4200
2024-03-05T01:07:02.769Z,24.4100
2024-03-05T01:07:13.861Z,24.4100
2024-03-05T01:07:25.037Z,24.4100
2024-03-05T01:07:36.123Z,24.4100
2024-03-05T01:07:47.256Z,24.4000
2024-03-05T01:07:58.364Z,24.4000
2024-03-05T01:08:09.442Z,24.4000
2024-03-05T01:08:20.482Z,24.4000
2024-03-05T01:08:31.523Z,24.4000
2024-03-05T01:08:42.579Z,24.4000
2024-03-05T01:08:53.644Z,24.4000
2024-03-05T01:09:04.682Z,24.4000
2024-03-05T01:09:15.767Z,24.4000
2024-03-05T01:09:26.802Z,24.4000
2024-03-05T01:09:37.861Z,24.4000
2024-03-05T01:09:48.928Z,24.4000
2024-03-05T01:09:59.959Z,24.4000
2024-03-05T01:10:11.199Z,24.4000
2024-03-05T01:10:22.339Z,24.4000
2024-03-05T01:10:33.400Z,24.3900
2024-03-05T01:10:44.532Z,24.4000
2024-03-05T01:10:55.756Z,24.4000
2024-03-05T01:11:06.889Z,24.4000
2024-03-05T01:11:17.987Z,24.4000
2024-03-05T01:11:29.086Z,24.4100
2024-03-05T01:11:40.251Z,24.4100
2024-03-05T01:11:51.361Z,24.4200
2024-03-05T01:12:02.423Z,24.4200
2024-03-05T01:12:13.443Z,24.4100
2024-03-05T01:12:24.494Z,24.4100
2024-03-05T01:12:35.529Z,24.4100
2024-03-05T01:12:46.580Z,24.4100
2024-03-05T01:12:57.640Z,24.4100
2024-03-05T01:13:08.709Z,24.4100
2024-03-05T01:13:19.819Z,24.4100
2024-03-05T01:13:30.898Z,24.4100
2024-03-05T01:13:41.988Z,24.4000
2024-03-05T01:13:53.101Z,24.4000
2024-03-05T01:14:04.201Z,24.4100
2024-03-05T01:14:15.233Z,24.4100
2024-03-05T01:14:26.282Z,24.4100
2024-03-05T01:14:37.333Z,24.4100
2024-03-05T01:14:48.362Z,24.4000
2024-03-05T01:14:59.373Z,24.4000
2024-03-05T01:15:10.441Z,24.4000
2024-03-05T01:15:21.487Z,24.4000
2024-03-05T01:15:32.535Z,24.4000
2024-03-05T01:15:43.597Z,24.3900
2024-03-05T01:15:54.660Z,24.3800
2024-03-05T01:16:05.711Z,24.3800
2024-03-05T01:16:16.848Z,24.3900
2024-03-05T01:16:27.923Z,24.3900
2024-03-05T01:16:39.029Z,24.4000
2024-03-05T01:16:50.151Z,24.4000
2024-03-05T01:17:01.271Z,24.4000
2024-03-05T01:17:12.329Z,24.4000
2024-03-05T01:17:23.387Z,24.4000
2024-03-05T01:17:34.435Z,24.4000
2024-03-05T01:17:45.461Z,24.4000
2024-03-05T01:17:56.516Z,24.4100
2024-03-05T01:18:07.638Z,24.4100
2024-03-05T01:18:18.765Z,24.4100
2024-03-05T01:18:29.814Z,24.4000
2024-03-05T01:18:40.883Z,24.4100
2024-03-05T01:18:51.904Z,24.4000
2024-03-05T01:19:02.985Z,24.4000
2024-03-05T01:19:14.066Z,24.4000
2024-03-05T01:19:25.121Z,24.4100
2024-03-05T01:19:36.246Z,24.4100
2024-03-05T01:19:47.281Z,24.4100
2024-03-05T01:19:58.485Z,24.4100
2024-03-05T01:20:09.549Z,24.4100
2024-03-05T01:20:20.614Z,24.4100
2024-03-05T01:20:31.714Z,24.4100
2024-03-05T01:20:42.771Z,24.4100
2024-03-05T01:20:53.823Z,24.4100
2024-03-05T01:21:04.864Z,24.4200
2024-03-05T01:21:15.931Z,24.4200
2024-03-05T01:21:26.980Z,24.4200
2024-03-05T01:21:38.005Z,24.4200
2024-03-05T01:21:49.081Z,24.4200
2024-03-05T01:22:00.132Z,24.4200
2024-03-05T01:22:11.181Z,24.4200
2024-03-05T01:22:22.513Z,24.4200
2024-03-05T01:22:33.617Z,24.4200
2024-03-05T01:22:44.752Z,24.4200
2024-03-05T01:22:55.911Z,24.4200
2024-03-05T01:23:07.025Z,24.4200
2024-03-05T01:23:18.201Z,24.4200
2024-03-05T01:23:29.262Z,24.4200
2024-03-05T01:23:40.321Z,24.4100
2024-03-05T01:23:51.364Z,24.4100
2024-03-05T01:24:02.426Z,24.4100
2024-03-05T01:24:13.472Z,24.4100
2024-03-05T01:24:24.625Z,24.4200
2024-03-05T01:24:35.649Z,24.4200
2024-03-05T01:24:46.690Z,24.4200
2024-03-05T01:24:57.756Z,24.4200
2024-03-05T01:25:08.784Z,24.4200
2024-03-05T01:25:19.885Z,24.4200
2024-03-05T01:25:31.021Z,24.4200
2024-03-05T01:25:42.105Z,24.4200
2024-03-05T01:25:53.240Z,24.4100
2024-03-05T01:26:04.514Z,24.4100
2024-03-05T01:26:15.693Z,24.4100
2024-03-05T01:26:26.772Z,24.4100
2024-03-05T01:26:37.795Z,24.4100
2024-03-05T01:26:48.846Z,24.4100
2024-03-05T01:26:59.924Z,24.4100
2024-03-05T01:27:10.976Z,24.4000
2024-03-05T01:27:22.036Z,24.4000
2024-03-05T01:27:33.111Z,24.4000
2024-03-05T01:27:44.154Z,24.4000
2024-03-05T01:27:55.204Z,24.4000
2024-03-05T01:28:06.282Z,24.4000
2024-03-05T01:28:17.340Z,24.4000
2024-03-05T01:28:28.432Z,24.4000
2024-03-05T01:28:39.519Z,24.4100
2024-03-05T01:28:50.625Z,24.4100
2024-03-05T01:29:01.755Z,24.4200
2024-03-05T01:29:12.822Z,24.4200
2024-03-05T01:29:23.888Z,24.4200
2024-03-05T01:29:34.940Z,24.4200
2024-03-05T01:29:46.000Z,24.4100
2024-03-05T01:29:57.048Z,24.4200
2024-03-05T01:30:09.815Z,24.4100
2024-03-05T01:30:21.132Z,24.4100
2024-03-05T01:30:32.165Z,24.4000
2024-03-05T01:30:43.211Z,24.4100
2024-03-05T01:30:54.258Z,24.4100
2024-03-05T01:31:05.395Z,24.4100
2024-03-05T01:31:16.490Z,24.4100
2024-03-05T01:31:27.638Z,24.4100
2024-03-05T01:31:38.784Z,24.4100
2024-03-05T01:31:49.920Z,24.4100
2024-03-05T01:32:01.654Z,24.4100
2024-03-05T01:32:12.806Z,24.4100
2024-03-05T01:32:23.872Z,24.4000
2024-03-05T01:32:34.957Z,24.4000
2024-03-05T01:32:46.066Z,24.4100
2024-03-05T01:32:57.132Z,24.4100
2024-03-05T01:33:08.192Z,24.4100
2024-03-05T01:33:19.208Z,24.4100
2024-03-05T01:33:30.273Z,24.4100
2024-03-05T01:33:41.312Z,24.4100
2024-03-05T01:33:52.411Z,24.4100
2024-03-05T01:34:03.469Z,24.4100
2024-03-05T01:34:14.544Z,24.4100
2024-03-05T01:34:25.642Z,24.4000
2024-03-05T01:34:36.766Z,24.4000
2024-03-05T01:34:47.960Z,24.4000
2024-03-05T01:34:59.122Z,24.4100
2024-03-05T01:35:10.155Z,24.4100
2024-03-05T01:35:21.192Z,24.4200
2024-03-05T01:35:32.239Z,24.4300
2024-03-05T01:35:43.266Z,24.4300
2024-03-05T01:35:54.365Z,24.4400
2024-03-05T01:36:05.413Z,24.4400
2024-03-05T01:36:16.603Z,24.4400
2024-03-05T01:36:27.689Z,24.4400
2024-03-05T01:36:38.708Z,24.4400
2024-03-05T01:36:49.744Z,24.4500
2024-03-05T01:37:00.802Z,24.4500
2024-03-05T01:37:11.874Z,24.4500
2024-03-05T01:37:22.987Z,24.4400
2024-03-05T01:37:34.124Z,24.4400
2024-03-05T01:37:45.310Z,24.4400
2024-03-05T01:37:56.399Z,24.4300
2024-03-05T01:38:07.453Z,24.4200
2024-03-05T01:38:18.500Z,24.4200
2024-03-05T01:38:29.533Z,24.4200
2024-03-05T01:38:40.571Z,24.4200
2024-03-05T01:38:51.630Z,24.4300
2024-03-05T01:39:02.658Z,24.4300
2024-03-05T01:39:13.710Z,24.4200
2024-03-05T01:39:24.743Z,24.4200
2024-03-05T01:39:35.818Z,24.4200
2024-03-05T01:39:46.819Z,24.4200
2024-03-05T01:39:57.868Z,24.4200
2024-03-05T01:40:08.904Z,24.4200
2024-03-05T01:40:20.003Z,24.4100
2024-03-05T01:40:31.068Z,24.4100
2024-03-05T01:40:42.103Z,24.4000
2024-03-05T01:40:53.223Z,24.3900
2024-03-05T01:41:04.324Z,24.3900
2024-03-05T01:41:15.386Z,24.3900
2024-03-05T01:41:26.450Z,24.4000
2024-03-05T01:41:37.523Z,24.4000
2024-03-05T01:41:48.596Z,24.4000
2024-03-05T01:41:59.624Z,24.4000
2024-03-05T01:42:10.666Z,24.4000
2024-03-05T01:42:21.704Z,24.4000
2024-03-05T01:42:32.762Z,24.3900
2024-03-05T01:42:43.806Z,24.4000
2024-03-05T01:42:54.899Z,24.4000
2024-03-05T01:43:05.948Z,24.4000
2024-03-05T01:43:17.030Z,24.4000
2024-03-05T01:43:28.067Z,24.4100
2024-03-05T01:43:39.195Z,24.4100
2024-03-05T01:43:50.408Z,24.4100
2024-03-05T01:44:01.518Z,24.4100
2024-03-05T01:44:12.618Z,24.4100
2024-03-05T01:44:23.674Z,24.4200
2024-03-05T01:44:34.756Z,24.4300
2024-03-05T01:44:45.812Z,24.4300
2024-03-05T01:44:56.868Z,24.4300
2024-03-05T01:45:07.944Z,24.4300
2024-03-05T01:45:19.180Z,24.4300
2024-03-05T01:45:30.194Z,24.4300
2024-03-05T01:45:41.265Z,24.4300
2024-03-05T01:45:52.281Z,24.4300
2024-03-05T01:46:03.334Z,24.4300
2024-03-05T01:46:14.387Z,24.4300
2024-03-05T01:46:25.497Z,24.4300
2024-03-05T01:46:36.667Z,24.4300
2024-03-05T01:46:47.866Z,24.4300
2024-03-05T01:46:58.997Z,24.4300
2024-03-05T01:47:10.056Z,24.4300
2024-03-05T01:47:21.075Z,24.4300
2024-03-05T01:47:32.132Z,24.4300
2024-03-05T01:47:43.196Z,24.4200
2024-03-05T01:47:54.332Z,24.4200
2024-03-05T01:48:05.484Z,24.4200
2024-03-05T01:48:16.591Z,24.4200
2024-03-05T01:48:27.616Z,24.4200
2024-03-05T01:48:38.668Z,24.4200
2024-03-05T01:48:49.730Z,24.4200
2024-03-05T01:49:00.771Z,24.4200
2024-03-05T01:49:11.909Z,24.4100
2024-03-05T01:49:23.019Z,24.4100
2024-03-05T01:49:34.060Z,24.4000
2024-03-05T01:49:45.101Z,24.4000
2024-03-05T01:49:56.350Z,24.4000
2024-03-05T01:50:07.660Z,24.4000
2024-03-05T01:50:18.710Z,24.3900
2024-03-05T01:50:29.757Z,24.3900
2024-03-05T01:50:40.788Z,24.4000
2024-03-05T01:50:51.898Z,24.4000
2024-03-05T01:51:02.922Z,24.4000
2024-03-05T01:51:13.992Z,24.4000
2024-03-05T01:51:25.033Z,24.4000
2024-03-05T01:51:36.094Z,24.4100
2024-03-05T01:51:47.151Z,24.4100
2024-03-05T01:51:58.209Z,24.4100
2024-03-05T01:52:09.264Z,24.4100
2024-03-05T01:52:20.388Z,24.4100
2024-03-05T01:52:31.482Z,24.4100
2024-03-05T01:52:42.647Z,24.4100
2024-03-05T01:52:53.745Z,24.4100
2024-03-05T01:53:04.784Z,24.4100
2024-03-05T01:53:15.958Z,24.4000
2024-03-05T01:53:26.994Z,24.4000
2024-03-05T01:53:38.045Z,24.4000
2024-03-05T01:53:49.098Z,24.4100
2024-03-05T01:54:00.152Z,24.4100
2024-03-05T01:54:11.188Z,24.4100
2024-03-05T01:54:22.223Z,24.4100
2024-03-05T01:54:33.271Z,24.4100
2024-03-05T01:54:44.341Z,24.4100
2024-03-05T01:54:56.871Z,24.4100
2024-03-05T01:55:09.414Z,24.4100
2024-03-05T01:55:20.588Z,24.3900
2024-03-05T01:55:31.693Z,24.3900
2024-03-05T01:55:42.865Z,24.4000
2024-03-05T01:55:54.108Z,24.4000
2024-03-05T01:56:05.194Z,24.4000
2024-03-05T01:56:16.329Z,24.4100
2024-03-05T01:56:27.364Z,24.4100
2024-03-05T01:56:38.384Z,24.4100
2024-03-05T01:56:49.458Z,24.4100
2024-03-05T01:57:00.506Z,24.4100
2024-03-05T01:57:11.557Z,24.4200
2024-03-05T01:57:22.628Z,24.4200
2024-03-05T01:57:33.684Z,24.4300
2024-03-05T01:57:44.747Z,24.4200
2024-03-05T01:57:55.796Z,24.4200
2024-03-05T01:58:06.848Z,24.4200
2024-03-05T01:58:17.937Z,24.4300
2024-03-05T01:58:29.004Z,24.4300
2024-03-05T01:58:40.109Z,24.4300
2024-03-05T01:58:51.264Z,24.4300
2024-03-05T01:59:02.473Z,24.4300
2024-03-05T01:59:13.614Z,24.4400
2024-03-05T01:59:24.683Z,24.4400
2024-03-05T01:59:35.739Z,24.4500
2024-03-05T01:59:46.825Z,24.4400
2024-03-05T01:59:58.351Z,24.4400
2024-03-05T02:00:09.370Z,24.4400
2024-03-05T02:00:20.432Z,24.4300
2024-03-05T02:00:31.484Z,24.4300
2024-03-05T02:00:42.530Z,24.4300
2024-03-05T02:00:53.594Z,24.4400
2024-03-05T02:01:04.627Z,24.4300
2024-03-05T02:01:15.761Z,24.4300
2024-03-05T02:01:26.886Z,24.4400
2024-03-05T02:01:38.020Z,24.4400
2024-03-05T02:01:49.137Z,24.4400
2024-03-05T02:02:00.303Z,24.4400
2024-03-05T02:02:11.596Z,24.4300
2024-03-05T02:02:22.767Z,24.4200
2024-03-05T02:02:33.820Z,24.4200
2024-03-05T02:02:44.856Z,24.4100
2024-03-05T02:02:55.881Z,24.4100
2024-03-05T02:03:06.998Z,24.4100
2024-03-05T02:03:18.088Z,24.4100
2024-03-05T02:03:29.143Z,24.4100
2024-03-05T02:03:40.186Z,24.4100
2024-03-05T02:03:51.234Z,24.4000
2024-03-05T02:04:02.254Z,24.4000
2024-03-05T02:04:13.382Z,24.4000
2024-03-05T02:04:24.554Z,24.4100
2024-03-05T02:04:35.866Z,24.4100
2024-03-05T02:04:46.924Z,24.4100
2024-03-05T02:04:58.011Z,24.4100
2024-03-05T02:05:09.032Z,24.4100
2024-03-05T02:05:20.085Z,24.4000
2024-03-05T02:05:31.142Z,24.4000
2024-03-05T02:05:42.171Z,24.4000
2024-03-05T02:05:53.242Z,24.4000
2024-03-05T02:06:04.286Z,24.4000
2024-03-05T02:06:15.310Z,24.4000
2024-03-05T02:06:26.377Z,24.4000
2024-03-05T02:06:37.427Z,24.4000
2024-03-05T02:06:48.513Z,24.4000
2024-03-05T02:06:59.589Z,24.3900
2024-03-05T02:07:10.647Z,24.4000
2024-03-05T02:07:21.728Z,24.4000
2024-03-05T02:07:32.754Z,24.4000
2024-03-05T02:07:43.872Z,24.4000
2024-03-05T02:07:55.131Z,24.4000
2024-03-05T02:08:06.387Z,24.4000
2024-03-05T02:08:18.897Z,24.4000
2024-03-05T02:08:30.718Z,24.4000
2024-03-05T02:08:41.757Z,24.3900
2024-03-05T02:08:52.791Z,24.3900
2024-03-05T02:09:03.853Z,24.3900
2024-03-05T02:09:14.890Z,24.3900
2024-03-05T02:09:25.922Z,24.3900
2024-03-05T02:09:36.994Z,24.4000
2024-03-05T02:09:48.079Z,24.3900
2024-03-05T02:09:59.242Z,24.4000
2024-03-05T02:10:10.300Z,24.4000
2024-03-05T02:10:21.342Z,24.4000
2024-03-05T02:10:32.452Z,24.4100
2024-03-05T02:10:43.490Z,24.4100
2024-03-05T02:10:54.631Z,24.4200
2024-03-05T02:11:05.797Z,24.4200
2024-03-05T02:11:16.959Z,24.4200
2024-03-05T02:11:28.075Z,24.4200
2024-03-05T02:11:49.166Z,24.4200
2024-03-05T02:11:59.510Z,24.4100
2024-03-05T02:12:13.102Z,24.3900
2024-03-05T02:12:24.178Z,24.3800
2024-03-05T02:12:35.211Z,24.3800
2024-03-05T02:12:46.347Z,24.3800
2024-03-05T02:12:57.472Z,24.3900
2024-03-05T02:13:08.523Z,24.3900
2024-03-05T02:13:19.607Z,24.3900
2024-03-05T02:13:30.676Z,24.3900
2024-03-05T02:13:41.787Z,24.3900
2024-03-05T02:13:52.865Z,24.3900
2024-03-05T02:14:03.894Z,24.3900
2024-03-05T02:14:14.993Z,24.3900
2024-03-05T02:14:26.042Z,24.3900
2024-03-05T02:14:37.073Z,24.3900